createdAt,value
2023-08-29T00:01:38.690Z,9.13
2023-08-29T00:04:05.596Z,9.45
2023-08-29T00:06:32.374Z,11.68
2023-08-29T00:08:59.071Z,7.65
2023-08-29T00:11:25.789Z,7.93
2023-08-29T00:13:53.916Z,7.72
2023-08-29T00:16:20.767Z,16.00
2023-08-29T00:18:47.495Z,9.75
2023-08-29T00:21:14.190Z,8.75
2023-08-29T00:23:40.921Z,8.68
2023-08-29T00:26:07.567Z,6.55
2023-08-29T00:28:34.320Z,7.70
2023-08-29T00:31:01.010Z,7.85
2023-08-29T00:33:27.668Z,6.47
2023-08-29T00:35:54.359Z,8.45
2023-08-29T00:38:21.044Z,11.93
2023-08-29T00:40:47.762Z,10.50
2023-08-29T00:43:14.448Z,6.80
2023-08-29T00:45:41.625Z,8.52
2023-08-29T00:48:09.952Z,7.57
2023-08-29T00:50:37.147Z,7.13
2023-08-29T00:53:06.434Z,7.95
2023-08-29T00:55:35.618Z,8.30
2023-08-29T00:58:04.182Z,10.88
2023-08-29T01:00:32.324Z,10.13
2023-08-29T01:03:00.382Z,16.33
2023-08-29T01:05:29.329Z,14.10
2023-08-29T01:08:00.953Z,7.90
2023-08-29T01:10:58.186Z,9.70
2023-08-29T01:13:34.893Z,8.15
2023-08-29T01:16:06.422Z,25.52
2023-08-29T01:18:35.255Z,10.93
2023-08-29T01:21:31.011Z,10.63
2023-08-29T01:24:24.316Z,13.35
2023-08-29T01:26:51.992Z,13.85
2023-08-29T01:29:19.349Z,9.02
2023-08-29T01:31:47.065Z,10.05
2023-08-29T01:34:14.009Z,8.95
2023-08-29T01:36:44.619Z,9.75
2023-08-29T01:39:11.620Z,10.90
2023-08-29T01:41:38.396Z,11.13
2023-08-29T01:44:06.320Z,10.80
2023-08-29T01:46:33.156Z,12.60
2023-08-29T01:49:02.900Z,10.93
2023-08-29T01:51:30.059Z,13.07
2023-08-29T01:53:57.959Z,11.30
2023-08-29T01:56:28.593Z,9.27
2023-08-29T01:58:55.909Z,8.43
2023-08-29T02:01:24.116Z,15.63
2023-08-29T02:03:51.821Z,10.30
2023-08-29T02:06:18.616Z,9.57
2023-08-29T02:08:45.855Z,13.45
2023-08-29T02:11:12.629Z,13.68
2023-08-29T02:13:39.505Z,10.88
2023-08-29T02:16:06.154Z,11.80
2023-08-29T02:18:32.866Z,12.43
2023-08-29T02:20:59.558Z,12.50
2023-08-29T02:23:26.559Z,11.07
2023-08-29T02:26:06.490Z,14.70
2023-08-29T02:28:37.601Z,15.40
2023-08-29T02:31:08.650Z,15.88
2023-08-29T02:33:37.202Z,16.00
2023-08-29T02:36:07.589Z,17.10
2023-08-29T02:38:35.101Z,11.32
2023-08-29T02:41:01.848Z,12.18
2023-08-29T02:43:29.296Z,10.57
2023-08-29T02:45:56.439Z,11.85
2023-08-29T02:48:23.392Z,15.00
2023-08-29T02:50:50.171Z,14.65
2023-08-29T02:53:21.148Z,12.75
2023-08-29T02:55:50.875Z,13.73
2023-08-29T02:58:17.538Z,18.85
2023-08-29T03:00:44.596Z,14.98
2023-08-29T03:03:14.657Z,12.15
2023-08-29T03:05:43.374Z,15.85
2023-08-29T03:08:10.150Z,12.38
2023-08-29T03:10:40.099Z,17.02
2023-08-29T03:13:06.817Z,14.18
2023-08-29T03:15:34.531Z,13.27
2023-08-29T03:18:01.572Z,13.25
2023-08-29T03:20:28.512Z,12.35
2023-08-29T03:22:55.199Z,18.17
2023-08-29T03:25:23.143Z,17.63
2023-08-29T03:27:50.722Z,19.40
2023-08-29T03:30:17.558Z,15.20
2023-08-29T03:32:44.514Z,15.05
2023-08-29T03:35:12.206Z,12.45
2023-08-29T03:37:41.026Z,14.27
2023-08-29T03:40:08.717Z,14.38
2023-08-29T03:42:35.400Z,15.55
2023-08-29T03:45:02.275Z,13.82
2023-08-29T03:47:29.184Z,20.70
2023-08-29T03:49:56.056Z,15.23
2023-08-29T03:52:27.711Z,19.65
2023-08-29T03:54:55.096Z,16.35
2023-08-29T03:57:23.996Z,15.07
2023-08-29T03:59:50.794Z,20.80
2023-08-29T04:02:17.545Z,12.77
2023-08-29T04:04:45.580Z,21.23
2023-08-29T04:07:12.692Z,17.70
2023-08-29T04:09:40.942Z,16.58
2023-08-29T04:12:09.256Z,21.33
2023-08-29T04:14:39.154Z,19.90
2023-08-29T04:17:05.937Z,19.48
2023-08-29T04:19:32.632Z,17.85
2023-08-29T04:21:59.320Z,18.42
2023-08-29T04:24:26.029Z,18.10
2023-08-29T04:26:54.016Z,16.90
2023-08-29T04:29:20.733Z,17.85
2023-08-29T04:31:48.128Z,19.45
2023-08-29T04:34:15.038Z,20.65
2023-08-29T04:36:41.723Z,19.58
2023-08-29T04:39:08.397Z,21.58
2023-08-29T04:41:35.078Z,19.40
2023-08-29T04:44:01.778Z,17.88
2023-08-29T04:46:28.454Z,22.95
2023-08-29T04:48:55.163Z,22.17
2023-08-29T04:51:21.924Z,28.63
2023-08-29T04:53:48.661Z,22.58
2023-08-29T04:56:15.695Z,22.45
2023-08-29T04:58:42.485Z,16.27
2023-08-29T05:01:09.398Z,20.48
2023-08-29T05:03:36.414Z,17.67
2023-08-29T05:06:03.383Z,22.08
2023-08-29T05:08:30.165Z,25.83
2023-08-29T05:10:57.957Z,17.27
2023-08-29T05:13:24.602Z,23.77
2023-08-29T05:15:52.041Z,19.90
2023-08-29T05:18:18.795Z,19.58
2023-08-29T05:20:45.608Z,16.55
2023-08-29T05:23:12.312Z,20.45
2023-08-29T05:25:40.851Z,17.63
2023-08-29T05:28:07.783Z,16.88
2023-08-29T05:30:36.228Z,16.85
2023-08-29T05:33:03.039Z,15.68
2023-08-29T05:35:29.832Z,16.00
2023-08-29T05:37:56.635Z,14.80
2023-08-29T05:40:23.473Z,14.10
2023-08-29T05:42:50.150Z,15.85
2023-08-29T05:45:17.048Z,15.07
2023-08-29T05:47:43.730Z,17.17
2023-08-29T05:50:11.014Z,14.88
2023-08-29T05:52:37.821Z,14.55
2023-08-29T05:55:05.112Z,13.93
2023-08-29T05:57:31.848Z,19.00
2023-08-29T05:59:58.560Z,12.40
2023-08-29T06:02:25.296Z,11.38
2023-08-29T06:04:52.089Z,11.93
2023-08-29T06:07:18.763Z,11.35
2023-08-29T06:09:45.520Z,9.50
2023-08-29T06:12:12.288Z,12.35
2023-08-29T06:14:38.981Z,12.98
2023-08-29T06:17:06.332Z,13.48
2023-08-29T06:19:33.009Z,19.40
2023-08-29T06:21:59.755Z,14.18
2023-08-29T06:24:26.438Z,15.13
2023-08-29T06:26:53.254Z,21.20
2023-08-29T06:29:20.045Z,15.57
2023-08-29T06:31:46.881Z,13.45
2023-08-29T06:34:13.667Z,16.27
2023-08-29T06:36:40.428Z,18.10
2023-08-29T06:39:07.121Z,15.68
2023-08-29T06:41:33.904Z,12.90
2023-08-29T06:44:00.690Z,11.68
2023-08-29T06:46:27.451Z,11.18
2023-08-29T06:48:54.183Z,14.88
2023-08-29T06:51:20.932Z,15.52
2023-08-29T06:53:47.763Z,13.73
2023-08-29T06:56:14.502Z,12.77
2023-08-29T06:58:41.221Z,11.65
2023-08-29T07:01:08.102Z,14.63
2023-08-29T07:03:34.872Z,12.32
2023-08-29T07:06:01.720Z,10.32
2023-08-29T07:08:28.434Z,10.77
2023-08-29T07:10:55.165Z,11.18
2023-08-29T07:13:21.884Z,13.63
2023-08-29T07:15:48.552Z,9.13
2023-08-29T07:18:15.624Z,9.77
2023-08-29T07:20:42.753Z,11.68
2023-08-29T07:23:09.499Z,10.15
2023-08-29T07:25:37.597Z,10.38
2023-08-29T07:28:04.977Z,8.90
2023-08-29T07:30:31.929Z,10.32
2023-08-29T07:32:58.689Z,9.98
2023-08-29T07:35:25.764Z,8.88
2023-08-29T07:37:53.320Z,11.68
2023-08-29T07:40:20.557Z,8.90
2023-08-29T07:42:47.329Z,11.43
2023-08-29T07:45:14.073Z,10.48
2023-08-29T07:47:40.774Z,11.63
2023-08-29T07:50:07.867Z,10.52
2023-08-29T07:52:35.741Z,11.13
2023-08-29T07:55:02.491Z,9.68
2023-08-29T07:57:29.242Z,11.70
2023-08-29T07:59:55.998Z,8.65
2023-08-29T08:02:22.725Z,11.15
2023-08-29T08:04:49.384Z,10.20
2023-08-29T08:07:16.061Z,10.75
2023-08-29T08:09:43.474Z,7.82
2023-08-29T08:12:10.195Z,8.68
2023-08-29T08:14:36.884Z,8.60
2023-08-29T08:17:03.705Z,11.43
2023-08-29T08:19:30.684Z,11.88
2023-08-29T08:21:57.499Z,18.70
2023-08-29T08:24:24.256Z,9.18
2023-08-29T08:26:50.915Z,12.70
2023-08-29T08:29:17.634Z,9.82
2023-08-29T08:31:44.402Z,11.10
2023-08-29T08:34:12.888Z,13.85
2023-08-29T08:36:39.587Z,15.55
2023-08-29T08:39:06.766Z,10.68
2023-08-29T08:41:34.356Z,9.90
2023-08-29T08:44:05.771Z,9.55
2023-08-29T08:46:34.454Z,10.20
2023-08-29T08:49:02.759Z,12.70
2023-08-29T08:51:31.795Z,9.90
2023-08-29T08:53:59.139Z,11.35
2023-08-29T08:56:26.119Z,10.38
2023-08-29T08:58:52.967Z,10.23
2023-08-29T09:01:19.703Z,10.30
2023-08-29T09:03:46.446Z,9.52
2023-08-29T09:06:16.113Z,13.02
2023-08-29T09:08:43.013Z,13.70
2023-08-29T09:11:09.887Z,11.70
2023-08-29T09:13:45.602Z,12.40
2023-08-29T09:16:12.535Z,17.13
2023-08-29T09:18:42.986Z,13.68
2023-08-29T09:21:17.277Z,13.20
2023-08-29T09:23:44.209Z,12.82
2023-08-29T09:26:13.287Z,13.70
2023-08-29T09:28:41.083Z,14.10
2023-08-29T09:31:12.121Z,11.07
2023-08-29T09:33:40.316Z,10.50
2023-08-29T09:36:07.324Z,11.88
2023-08-29T09:38:35.296Z,10.50
2023-08-29T09:41:02.579Z,10.35
2023-08-29T09:43:30.474Z,9.85
2023-08-29T09:45:59.202Z,15.77
2023-08-29T09:48:26.171Z,14.13
2023-08-29T09:50:52.987Z,12.02
2023-08-29T09:53:21.249Z,11.57
2023-08-29T09:55:56.579Z,14.65
2023-08-29T09:58:25.918Z,13.95
2023-08-29T10:00:53.469Z,9.93
2023-08-29T10:03:21.266Z,12.77
2023-08-29T10:05:49.739Z,10.88
2023-08-29T10:08:26.713Z,10.90
2023-08-29T10:10:57.821Z,9.73
2023-08-29T10:13:25.987Z,17.93
2023-08-29T10:15:53.149Z,14.23
2023-08-29T10:18:21.005Z,13.65
2023-08-29T10:20:49.795Z,17.75
2023-08-29T10:23:18.688Z,14.07
2023-08-29T10:25:46.354Z,12.88
2023-08-29T10:28:14.906Z,10.07
2023-08-29T10:30:52.093Z,12.57
2023-08-29T10:33:20.344Z,10.65
2023-08-29T10:35:50.474Z,10.68
2023-08-29T10:38:18.322Z,8.80
2023-08-29T10:40:46.076Z,10.55
2023-08-29T10:43:23.847Z,12.13
2023-08-29T10:45:55.357Z,18.52
2023-08-29T10:48:44.751Z,10.50
2023-08-29T10:51:13.042Z,6.85
2023-08-29T10:53:50.832Z,12.55
2023-08-29T10:56:22.029Z,10.20
2023-08-29T10:58:49.066Z,8.90
2023-08-29T11:01:37.482Z,9.88
2023-08-29T11:04:16.900Z,7.65
2023-08-29T11:06:56.330Z,8.25
2023-08-29T11:09:24.342Z,7.53
2023-08-29T11:12:09.812Z,10.48
2023-08-29T11:14:52.704Z,12.68
2023-08-29T11:17:28.601Z,9.02
2023-08-29T11:19:57.266Z,8.13
2023-08-29T11:22:27.189Z,8.50
2023-08-29T11:24:57.663Z,9.55
2023-08-29T11:27:26.187Z,8.55
2023-08-29T11:30:05.914Z,7.53
2023-08-29T11:32:38.441Z,11.80
2023-08-29T11:35:05.568Z,12.85
2023-08-29T11:37:32.355Z,7.97
2023-08-29T11:40:02.395Z,13.43
2023-08-29T11:45:44.119Z,11.20
2023-08-29T11:48:05.176Z,9.65
2023-08-29T11:50:32.846Z,5.70
2023-08-29T11:52:59.552Z,8.05
2023-08-29T11:55:26.694Z,9.60
2023-08-29T11:57:54.200Z,7.88
2023-08-29T12:00:25.635Z,6.90
2023-08-29T12:02:52.527Z,13.48
2023-08-29T12:05:21.560Z,8.18
2023-08-29T12:07:52.481Z,9.30
2023-08-29T12:10:20.630Z,8.00
2023-08-29T12:12:47.338Z,7.55
2023-08-29T12:15:27.614Z,7.18
2023-08-29T12:18:05.736Z,7.90
2023-08-29T12:20:34.751Z,5.68
2023-08-29T12:23:01.492Z,9.73
2023-08-29T12:25:28.490Z,6.10
2023-08-29T12:27:55.324Z,6.68
2023-08-29T12:30:22.098Z,5.38
2023-08-29T12:32:49.037Z,8.50
2023-08-29T12:35:17.610Z,10.00
2023-08-29T12:37:44.371Z,6.95
2023-08-29T12:40:13.320Z,5.38
2023-08-29T12:42:41.664Z,5.13
2023-08-29T12:45:09.123Z,4.72
2023-08-29T12:47:37.045Z,5.03
2023-08-29T12:50:04.133Z,4.85
2023-08-29T12:52:30.905Z,8.02
2023-08-29T12:54:57.748Z,5.55
2023-08-29T12:57:24.532Z,6.32
2023-08-29T12:59:51.242Z,10.27
2023-08-29T13:02:17.959Z,5.03
2023-08-29T13:04:44.617Z,5.40
2023-08-29T13:07:11.450Z,10.88
2023-08-29T13:09:39.441Z,8.70
2023-08-29T13:12:08.263Z,10.35
2023-08-29T13:14:39.513Z,10.75
2023-08-29T13:17:07.414Z,5.30
2023-08-29T13:19:34.947Z,12.00
2023-08-29T13:22:05.364Z,5.20
2023-08-29T13:24:32.482Z,14.50
2023-08-29T13:26:59.560Z,7.80
2023-08-29T13:29:27.697Z,7.90
2023-08-29T13:31:54.815Z,6.22
2023-08-29T13:34:21.611Z,7.28
2023-08-29T13:36:48.556Z,5.85
2023-08-29T13:39:15.444Z,4.93
2023-08-29T13:41:43.603Z,5.65
2023-08-29T13:44:13.636Z,5.30
2023-08-29T13:46:42.469Z,4.40
2023-08-29T13:49:10.328Z,6.25
2023-08-29T13:51:37.085Z,4.30
2023-08-29T13:54:04.669Z,6.10
2023-08-29T13:56:31.469Z,7.68
2023-08-29T13:58:59.242Z,3.63
2023-08-29T14:01:26.109Z,10.07
2023-08-29T14:03:52.935Z,7.55
2023-08-29T14:06:19.702Z,4.40
2023-08-29T14:08:49.347Z,5.05
2023-08-29T14:11:16.370Z,9.73
2023-08-29T14:13:43.021Z,9.55
2023-08-29T14:16:09.954Z,5.60
2023-08-29T14:18:36.923Z,7.32
2023-08-29T14:21:03.970Z,5.60
2023-08-29T14:23:30.723Z,3.28
2023-08-29T14:25:58.215Z,3.60
2023-08-29T14:28:25.540Z,4.63
2023-08-29T14:30:52.349Z,9.15
2023-08-29T14:33:19.164Z,3.55
2023-08-29T14:35:45.987Z,7.20
2023-08-29T14:38:14.205Z,10.18
2023-08-29T14:40:41.041Z,6.15
2023-08-29T14:43:07.848Z,8.05
2023-08-29T14:45:40.268Z,4.88
2023-08-29T14:48:08.565Z,11.15
2023-08-29T14:50:35.923Z,29.35
2023-08-29T14:53:02.757Z,12.88
2023-08-29T14:55:29.419Z,6.63
2023-08-29T14:57:59.382Z,6.78
2023-08-29T15:00:26.120Z,13.88
2023-08-29T15:02:55.087Z,6.88
2023-08-29T15:05:21.976Z,8.20
2023-08-29T15:07:48.682Z,8.13
2023-08-29T15:10:15.413Z,8.23
2023-08-29T15:12:42.157Z,6.20
2023-08-29T15:15:09.554Z,7.05
2023-08-29T15:17:36.306Z,9.48
2023-08-29T15:20:08.489Z,7.82
2023-08-29T15:22:35.190Z,4.85
2023-08-29T15:25:01.983Z,10.57
2023-08-29T15:27:28.690Z,5.07
2023-08-29T15:29:55.396Z,10.45
2023-08-29T15:32:22.085Z,5.03
2023-08-29T15:34:48.822Z,7.25
2023-08-29T15:37:15.544Z,7.85
2023-08-29T15:39:44.256Z,13.07
2023-08-29T15:42:11.150Z,6.00
2023-08-29T15:44:38.648Z,7.00
2023-08-29T15:47:05.677Z,6.45
2023-08-29T15:49:32.422Z,5.15
2023-08-29T15:51:59.251Z,4.15
2023-08-29T15:54:27.032Z,4.80
2023-08-29T15:56:53.768Z,7.28
2023-08-29T15:59:21.881Z,6.50
2023-08-29T16:01:48.738Z,5.95
2023-08-29T16:04:15.821Z,5.07
2023-08-29T16:06:42.555Z,13.27
2023-08-29T16:09:09.386Z,5.68
2023-08-29T16:11:36.179Z,6.13
2023-08-29T16:14:02.865Z,6.82
2023-08-29T16:16:29.592Z,6.35
2023-08-29T16:18:56.419Z,11.88
2023-08-29T16:21:23.106Z,4.65
2023-08-29T16:23:49.770Z,4.22
2023-08-29T16:26:17.811Z,7.68
2023-08-29T16:28:45.297Z,4.55
2023-08-29T16:31:12.061Z,5.40
2023-08-29T16:33:38.919Z,9.20
2023-08-29T16:36:06.344Z,4.35
2023-08-29T16:38:33.045Z,9.73
2023-08-29T16:41:00.029Z,6.40
2023-08-29T16:43:27.640Z,8.05
2023-08-29T16:45:54.686Z,7.50
2023-08-29T16:48:21.526Z,6.20
2023-08-29T16:50:49.838Z,5.30
2023-08-29T16:53:17.065Z,6.43
2023-08-29T16:55:44.055Z,8.05
2023-08-29T16:58:11.018Z,4.55
2023-08-29T17:00:38.817Z,3.45
2023-08-29T17:03:11.271Z,6.55
2023-08-29T17:05:39.031Z,3.67
2023-08-29T17:08:07.212Z,6.13
2023-08-29T17:10:34.522Z,4.78
2023-08-29T17:13:01.227Z,3.58
2023-08-29T17:15:27.931Z,7.38
2023-08-29T17:17:54.691Z,6.13
2023-08-29T17:20:21.558Z,3.70
2023-08-29T17:22:49.717Z,4.68
2023-08-29T17:25:16.816Z,4.78
2023-08-29T17:27:44.109Z,10.05
2023-08-29T17:30:12.322Z,2.42
2023-08-29T17:32:39.572Z,3.53
2023-08-29T17:35:06.794Z,2.95
2023-08-29T17:37:35.068Z,5.45
2023-08-29T17:40:02.142Z,4.30
2023-08-29T17:42:28.975Z,4.03
2023-08-29T17:44:56.905Z,1.98
2023-08-29T17:47:23.812Z,1.15
2023-08-29T17:49:51.548Z,2.83
2023-08-29T17:52:18.421Z,1.52
2023-08-29T17:54:45.283Z,1.77
2023-08-29T17:57:12.065Z,5.07
2023-08-29T17:59:41.099Z,2.70
2023-08-29T18:02:07.938Z,3.05
2023-08-29T18:04:34.662Z,2.25
2023-08-29T18:07:01.523Z,5.18
2023-08-29T18:09:28.248Z,4.32
2023-08-29T18:11:54.942Z,6.00
2023-08-29T18:14:21.709Z,4.78
2023-08-29T18:16:50.785Z,2.72
2023-08-29T18:19:17.691Z,5.07
2023-08-29T18:21:44.584Z,4.10
2023-08-29T18:24:13.052Z,3.78
2023-08-29T18:26:40.206Z,7.38
2023-08-29T18:29:07.025Z,3.20
2023-08-29T18:31:33.852Z,4.10
2023-08-29T18:34:00.647Z,6.55
2023-08-29T18:36:27.549Z,7.80
2023-08-29T18:38:56.636Z,8.95
2023-08-29T18:41:23.370Z,6.15
2023-08-29T18:43:50.118Z,5.15
2023-08-29T18:46:18.262Z,5.38
2023-08-29T18:48:45.203Z,13.02
2023-08-29T18:51:11.859Z,5.93
2023-08-29T18:53:39.016Z,9.18
2023-08-29T18:56:05.774Z,6.63
2023-08-29T18:58:35.682Z,8.20
2023-08-29T19:01:04.050Z,6.18
2023-08-29T19:03:30.810Z,5.13
2023-08-29T19:05:57.893Z,4.78
2023-08-29T19:08:24.709Z,4.65
2023-08-29T19:10:51.374Z,5.20
2023-08-29T19:13:18.157Z,5.20
2023-08-29T19:15:44.977Z,7.72
2023-08-29T19:18:14.964Z,6.25
2023-08-29T19:20:41.799Z,5.68
2023-08-29T19:23:08.616Z,4.80
2023-08-29T19:25:35.446Z,4.75
2023-08-29T19:28:02.148Z,5.90
2023-08-29T19:30:29.008Z,6.75
2023-08-29T19:33:01.636Z,10.10
2023-08-29T19:35:31.518Z,6.10
2023-08-29T19:37:58.326Z,8.40
2023-08-29T19:40:25.266Z,4.95
2023-08-29T19:42:51.951Z,6.07
2023-08-29T19:45:18.657Z,3.33
2023-08-29T19:47:45.528Z,3.88
2023-08-29T19:50:12.469Z,5.30
2023-08-29T19:52:39.956Z,5.10
2023-08-29T19:55:07.097Z,7.65
2023-08-29T19:57:34.848Z,3.05
2023-08-29T20:00:01.791Z,4.80
2023-08-29T20:02:28.674Z,3.50
2023-08-29T20:04:55.391Z,4.57
2023-08-29T20:07:22.164Z,5.50
2023-08-29T20:09:48.894Z,6.22
2023-08-29T20:12:15.737Z,5.70
2023-08-29T20:14:42.584Z,6.07
2023-08-29T20:17:09.388Z,4.43
2023-08-29T20:19:37.601Z,3.47
2023-08-29T20:22:04.592Z,5.00
2023-08-29T20:24:31.257Z,3.42
2023-08-29T20:26:58.001Z,4.70
2023-08-29T20:29:24.806Z,4.15
2023-08-29T20:31:51.557Z,3.95
2023-08-29T20:34:18.399Z,3.38
2023-08-29T20:36:48.841Z,2.10
2023-08-29T20:39:16.372Z,2.33
2023-08-29T20:41:43.524Z,5.40
2023-08-29T20:44:10.291Z,5.47
2023-08-29T20:46:37.090Z,5.18
2023-08-29T20:49:03.926Z,5.07
2023-08-29T20:51:30.814Z,5.03
2023-08-29T20:53:57.512Z,4.18
2023-08-29T20:56:27.046Z,3.83
2023-08-29T20:58:53.772Z,3.35
2023-08-29T21:01:21.708Z,5.22
2023-08-29T21:03:48.543Z,4.72
2023-08-29T21:06:15.325Z,3.65
2023-08-29T21:08:42.173Z,5.35
2023-08-29T21:11:09.095Z,3.83
2023-08-29T21:13:36.077Z,5.68
2023-08-29T21:16:03.701Z,3.72
2023-08-29T21:18:31.187Z,9.48
2023-08-29T21:21:02.860Z,6.93
2023-08-29T21:23:30.030Z,3.17
2023-08-29T21:25:56.807Z,6.05
2023-08-29T21:28:26.330Z,8.00
2023-08-29T21:30:54.217Z,12.00
2023-08-29T21:33:22.923Z,7.22
2023-08-29T21:35:51.070Z,4.25
2023-08-29T21:38:18.143Z,5.35
2023-08-29T21:40:46.379Z,3.80
2023-08-29T21:43:19.281Z,4.38
2023-08-29T21:45:56.708Z,6.13
2023-08-29T21:48:25.410Z,6.20
2023-08-29T21:50:53.404Z,3.85
2023-08-29T21:53:20.297Z,3.75
2023-08-29T21:55:47.605Z,4.57
2023-08-29T21:58:17.572Z,6.65
2023-08-29T22:00:54.422Z,4.65
2023-08-29T22:03:25.946Z,4.32
2023-08-29T22:05:53.610Z,3.83
2023-08-29T22:08:21.158Z,5.65
2023-08-29T22:10:48.731Z,2.80
2023-08-29T22:13:15.687Z,4.63
2023-08-29T22:15:42.562Z,3.28
2023-08-29T22:18:10.173Z,4.10
2023-08-29T22:20:37.299Z,2.75
2023-08-29T22:23:04.359Z,4.10
2023-08-29T22:25:31.091Z,2.95
2023-08-29T22:27:57.772Z,4.50
2023-08-29T22:30:25.568Z,3.83
2023-08-29T22:32:55.697Z,7.65
2023-08-29T22:35:22.602Z,2.78
2023-08-29T22:37:49.417Z,7.15
2023-08-29T22:40:16.394Z,5.18
2023-08-29T22:42:43.229Z,4.53
2023-08-29T22:45:10.310Z,3.60
2023-08-29T22:47:37.127Z,4.45
2023-08-29T22:50:03.952Z,6.75
2023-08-29T22:52:30.695Z,4.45
2023-08-29T22:54:57.420Z,5.32
2023-08-29T22:57:24.140Z,4.07
2023-08-29T22:59:50.822Z,3.75
2023-08-29T23:02:17.797Z,3.22
2023-08-29T23:04:44.556Z,4.72
2023-08-29T23:07:12.321Z,3.35
2023-08-29T23:09:39.857Z,5.22
2023-08-29T23:12:07.029Z,3.55
2023-08-29T23:14:34.311Z,3.22
2023-08-29T23:17:01.005Z,4.25
2023-08-29T23:19:28.065Z,8.88
2023-08-29T23:21:55.192Z,3.10
2023-08-29T23:24:22.135Z,4.13
2023-08-29T23:26:49.397Z,3.05
2023-08-29T23:29:16.468Z,7.80
2023-08-29T23:31:43.561Z,5.78
2023-08-29T23:34:10.916Z,3.20
2023-08-29T23:36:37.951Z,4.78
2023-08-29T23:39:07.885Z,8.23
2023-08-29T23:41:35.051Z,8.63
2023-08-29T23:44:01.808Z,3.40
2023-08-29T23:46:28.988Z,12.85
2023-08-29T23:48:55.907Z,5.35
2023-08-29T23:51:23.328Z,3.90
2023-08-29T23:53:51.261Z,3.10
2023-08-29T23:56:18.382Z,7.05
2023-08-29T23:58:45.808Z,15.85
